73.0°F
Current conditions from King Hill
Updated every 5 minutes
 
  Sunday September 21, 2014

Station Historical Data
Daily Summary for March 15, 2012 Units:  Metric    English   Both
« Previous Day
Next Day »
Daily Weekly Monthly Yearly Custom
  High: Low: Average:
Temperature: 12.7 °C 0.2 °C 5.3 °C
Dew Point: 4.5 °C -0.6 °C 2.1 °C
Humidity: 95% 54% 81%
Wind Speed: 8km/h 0km/h 3.2km/h
Wind Gust: 19.3km/h - -
Wind- - SW
Pressure: 1026.3 hPa 1020.5 hPa -
Precipitation: 2.5 mm    
Historical Graphs
 
 
Tabular Data for March 15, 2012
Time Temperature Dew Point Pressure Wind Wind Speed Wind Gust Humidity Daily Rainfall
00:00 2.7 °C 1.7 °C 1023.2 hPa Calm   4.8 km/h 93% 1.5 mm
00:05 2.6 °C 1.6 °C 1023.2 hPa Calm     93% 0 mm
00:10 2.6 °C 1.6 °C 1023.2 hPa NNE 1.6 km/h 3.2 km/h 93% 0 mm
00:15 2.5 °C 1.5 °C 1023.2 hPa Calm   8 km/h 93% 0 mm
00:20 2.4 °C 1.4 °C 1023.2 hPa Calm   8 km/h 93% 0 mm
00:30 2.3 °C 1.3 °C 1023.2 hPa Calm   1.6 km/h 93% 0 mm
00:35 2.3 °C 1.3 °C 1023.2 hPa Calm   1.6 km/h 93% 0 mm
00:45 2.1 °C 1.1 °C 1023.6 hPa Calm   4.8 km/h 93% 0 mm
00:50 2.1 °C 1.1 °C 1023.6 hPa Calm   3.2 km/h 93% 0 mm
00:55 2.1 °C 1.1 °C 1023.6 hPa North 1.6 km/h 4.8 km/h 93% 0 mm
01:00 2 °C 1 °C 1023.6 hPa Calm   4.8 km/h 93% 0 mm
01:05 1.9 °C 0.9 °C 1023.6 hPa Calm   4.8 km/h 93% 0 mm
01:10 1.9 °C 0.9 °C 1023.6 hPa Calm   4.8 km/h 93% 0 mm
01:15 1.9 °C 0.9 °C 1023.6 hPa Calm   4.8 km/h 93% 0 mm
01:20 1.7 °C 0.7 °C 1023.9 hPa North 1.6 km/h 4.8 km/h 93% 0 mm
01:25 1.6 °C 0.6 °C 1023.9 hPa Calm   4.8 km/h 93% 0 mm
01:30 1.3 °C 0.3 °C 1023.9 hPa Calm   4.8 km/h 93% 0 mm
01:35 1.3 °C 0.3 °C 1023.9 hPa Calm   4.8 km/h 93% 0 mm
01:40 1.3 °C 0.3 °C 1023.9 hPa Calm     93% 0 mm
01:45 1.2 °C 0.2 °C 1024.3 hPa Calm     93% 0 mm
01:50 1.1 °C 0.1 °C 1024.3 hPa Calm   3.2 km/h 93% 0 mm
01:55 0.9 °C -0.1 °C 1024.3 hPa Calm   3.2 km/h 93% 0 mm
02:00 0.9 °C -0.1 °C 1024.3 hPa Calm     93% 0 mm
02:05 0.8 °C -0.2 °C 1024.3 hPa Calm     93% 0 mm
02:10 0.8 °C -0.2 °C 1024.3 hPa Calm     93% 0 mm
02:15 0.8 °C -0.2 °C 1024.3 hPa Calm     93% 0 mm
02:20 0.9 °C -0.1 °C 1024.3 hPa Calm     93% 0 mm
02:25 0.9 °C 0.1 °C 1024.3 hPa Calm     94% 0 mm
02:35 0.9 °C 0.1 °C 1024.6 hPa Calm     94% 0 mm
02:40 0.8 °C 0 °C 1024.6 hPa Calm     94% 0 mm
02:45 0.7 °C -0.1 °C 1024.6 hPa Calm     94% 0 mm
02:50 0.6 °C -0.2 °C 1024.6 hPa Calm     94% 0 mm
02:55 0.6 °C -0.3 °C 1024.6 hPa Calm     94% 0 mm
03:00 0.5 °C -0.3 °C 1024.6 hPa Calm     94% 0 mm
03:05 0.4 °C -0.4 °C 1024.6 hPa Calm     94% 0 mm
03:10 0.4 °C -0.4 °C 1024.6 hPa Calm     94% 0 mm
03:15 0.4 °C -0.4 °C 1024.6 hPa Calm     94% 0 mm
03:20 0.4 °C -0.4 °C 1024.6 hPa Calm   1.6 km/h 94% 0 mm
03:25 0.4 °C -0.4 °C 1024.6 hPa NNE 1.6 km/h 6.4 km/h 94% 0 mm
03:30 0.3 °C -0.5 °C 1024.6 hPa Calm   6.4 km/h 94% 0 mm
03:35 0.3 °C -0.5 °C 1024.6 hPa Calm   3.2 km/h 94% 0 mm
03:45 0.3 °C -0.6 °C 1024.6 hPa Calm   1.6 km/h 94% 0 mm
03:50 0.3 °C -0.6 °C 1024.3 hPa Calm     94% 0 mm
04:00 0.2 °C -0.6 °C 1024.6 hPa Calm     94% 0 mm
04:05 0.3 °C -0.6 °C 1024.6 hPa Calm     94% 0 mm
04:10 0.3 °C -0.6 °C 1024.6 hPa Calm     94% 0 mm
04:20 0.4 °C -0.4 °C 1024.6 hPa Calm   3.2 km/h 94% 0 mm
04:25 0.4 °C -0.4 °C 1024.6 hPa Calm   3.2 km/h 94% 0 mm
04:30 0.4 °C -0.4 °C 1024.6 hPa Calm     94% 0 mm
04:35 0.4 °C -0.4 °C 1024.6 hPa Calm     94% 0 mm
04:40 0.4 °C -0.4 °C 1024.6 hPa Calm     94% 0 mm
04:45 0.4 °C -0.4 °C 1024.6 hPa Calm     94% 0 mm
04:50 0.4 °C -0.4 °C 1024.6 hPa Calm   1.6 km/h 94% 0 mm
05:00 0.3 °C -0.5 °C 1024.6 hPa Calm     94% 0 mm
05:05 0.3 °C -0.5 °C 1024.6 hPa Calm     94% 0 mm
05:10 0.3 °C -0.5 °C 1024.6 hPa Calm     94% 0 mm
05:15 0.3 °C -0.6 °C 1024.6 hPa Calm     94% 0 mm
05:20 0.3 °C -0.6 °C 1024.9 hPa Calm     94% 0 mm
05:25 0.3 °C -0.6 °C 1024.6 hPa Calm     94% 0 mm
05:30 0.3 °C -0.6 °C 1024.9 hPa Calm     94% 0 mm
05:35 0.3 °C -0.5 °C 1024.9 hPa Calm     94% 0 mm
05:40 0.3 °C -0.6 °C 1024.9 hPa Calm     94% 0 mm
05:45 0.3 °C -0.5 °C 1024.9 hPa Calm     94% 0 mm
05:55 0.3 °C -0.5 °C 1024.9 hPa Calm     94% 0 mm
06:00 0.4 °C -0.4 °C 1024.9 hPa Calm     94% 0 mm
06:05 0.4 °C -0.4 °C 1024.9 hPa Calm     94% 0 mm
06:10 0.4 °C -0.4 °C 1024.9 hPa Calm     94% 0 mm
06:15 0.4 °C -0.4 °C 1024.9 hPa Calm     94% 0 mm
06:20 0.5 °C -0.3 °C 1025.3 hPa Calm     94% 0 mm
06:25 0.5 °C -0.3 °C 1025.3 hPa Calm     94% 0 mm
06:30 0.6 °C -0.3 °C 1025.3 hPa Calm     94% 0 mm
06:35 0.6 °C -0.3 °C 1025.3 hPa Calm   3.2 km/h 94% 0 mm
06:45 0.6 °C -0.3 °C 1025.3 hPa Calm     94% 0 mm
06:50 0.5 °C -0.3 °C 1025.3 hPa Calm     94% 0 mm
06:55 0.5 °C -0.3 °C 1025.3 hPa Calm   1.6 km/h 94% 0 mm
07:00 0.4 °C -0.4 °C 1025.6 hPa Calm   3.2 km/h 94% 0 mm
07:05 0.4 °C -0.4 °C 1025.3 hPa Calm   3.2 km/h 94% 0 mm
07:10 0.4 °C -0.4 °C 1025.3 hPa Calm   1.6 km/h 94% 0 mm
07:15 0.4 °C -0.4 °C 1025.3 hPa Calm     94% 0 mm
07:20 0.4 °C -0.4 °C 1025.3 hPa Calm     94% 0 mm
07:25 0.5 °C -0.3 °C 1025.3 hPa Calm     94% 0 mm
07:35 0.5 °C -0.3 °C 1025.3 hPa East 1.6 km/h 4.8 km/h 94% 0 mm
07:40 0.4 °C -0.4 °C 1025.3 hPa ENE 3.2 km/h 6.4 km/h 94% 0 mm
07:50 0.3 °C -0.5 °C 1025.6 hPa Calm   6.4 km/h 94% 0 mm
07:55 0.3 °C -0.5 °C 1025.6 hPa Calm   4.8 km/h 94% 0 mm
08:00 0.4 °C -0.4 °C 1025.6 hPa Calm   4.8 km/h 94% 0 mm
08:05 0.4 °C -0.4 °C 1026 hPa Calm   4.8 km/h 94% 0 mm
08:10 0.5 °C -0.3 °C 1026 hPa Calm     94% 0 mm
08:15 0.5 °C -0.3 °C 1026 hPa Calm     94% 0 mm
08:20 0.6 °C -0.1 °C 1026 hPa Calm     95% 0 mm
08:25 0.7 °C -0.2 °C 1026 hPa Calm     94% 0 mm
08:30 0.7 °C -0.1 °C 1026.3 hPa Calm     94% 0 mm
08:40 0.9 °C 0.2 °C 1026.3 hPa Calm     95% 0 mm
08:45 0.9 °C 0.2 °C 1026 hPa Calm     95% 0 mm
08:55 1.1 °C 0.4 °C 1026 hPa Calm     95% 0 mm
09:05 1.3 °C 0.6 °C 1026 hPa Calm     95% 0 mm
09:10 1.3 °C 0.6 °C 1026 hPa Calm     95% 0 mm
09:15 1.3 °C 0.6 °C 1026 hPa Calm     95% 0 mm
09:20 1.7 °C 0.9 °C 1026 hPa Calm     95% 0 mm
09:25 1.9 °C 1.2 °C 1026 hPa Calm     95% 0 mm
09:30 2 °C 1.3 °C 1026 hPa Calm     95% 0 mm
09:35 2.2 °C 1.4 °C 1026 hPa Calm     95% 0 mm
09:40 2.2 °C 1.4 °C 1026 hPa Calm     95% 0 mm
09:45 2.3 °C 1.6 °C 1026 hPa Calm   4.8 km/h 95% 0 mm
09:50 2.3 °C 1.6 °C 1026 hPa Calm   4.8 km/h 95% 0 mm
10:00 2.3 °C 1.6 °C 1026 hPa Calm   8 km/h 95% 0 mm
10:05 2.3 °C 1.6 °C 1026 hPa Calm   8 km/h 95% 0 mm
10:10 2.3 °C 1.6 °C 1026 hPa Calm     95% 0 mm
10:15 2.3 °C 1.6 °C 1026 hPa Calm     95% 0 mm
10:20 2.6 °C 1.8 °C 1026 hPa Calm     95% 0 mm
10:25 2.8 °C 2.1 °C 1026 hPa Calm     95% 0 mm
10:35 3.1 °C 2.4 °C 1025.6 hPa Calm     95% 0 mm
10:40 3.4 °C 2.7 °C 1025.6 hPa Calm     95% 0 mm
10:45 3.6 °C 2.9 °C 1025.6 hPa Calm     95% 0 mm
10:50 3.8 °C 3.1 °C 1025.6 hPa Calm     95% 0 mm
10:55 4.1 °C 3.3 °C 1025.3 hPa Calm     95% 0 mm
11:00 4.5 °C 3.8 °C 1025.3 hPa Calm     95% 0 mm
11:05 4.7 °C 3.8 °C 1025.3 hPa Calm     94% 0 mm
11:10 4.9 °C 3.8 °C 1025.3 hPa Calm     93% 0 mm
11:15 5.1 °C 3.6 °C 1025.3 hPa Calm     90% 0 mm
11:20 5.3 °C 3.6 °C 1024.9 hPa Calm   4.8 km/h 89% 0 mm
11:25 5.8 °C 4.2 °C 1024.9 hPa Calm   4.8 km/h 89% 0 mm
11:30 6.4 °C 4.2 °C 1024.9 hPa Calm     86% 0 mm
11:40 5.8 °C 3 °C 1024.9 hPa Calm   8 km/h 82% 0 mm
11:45 5.8 °C 2.9 °C 1024.9 hPa Calm   8 km/h 82% 0 mm
11:50 6 °C 3.3 °C 1024.6 hPa Calm   8 km/h 83% 0 mm
11:55 6.7 °C 3.6 °C 1024.6 hPa Calm   3.2 km/h 81% 0 mm
12:00 7.3 °C 3.9 °C 1024.6 hPa Calm   3.2 km/h 79% 0 mm
12:05 7.6 °C 3.8 °C 1024.3 hPa Calm   3.2 km/h 77% 0 mm
12:10 7.7 °C 3.4 °C 1024.3 hPa SSE 3.2 km/h 6.4 km/h 74% 0 mm
12:15 7.7 °C 3.5 °C 1024.3 hPa Calm   9.7 km/h 75% 0 mm
12:20 7.5 °C 3.2 °C 1024.3 hPa Calm   9.7 km/h 74% 0 mm
12:25 7.7 °C 3.4 °C 1023.9 hPa Calm   8 km/h 74% 0 mm
12:35 8.3 °C 3.9 °C 1023.9 hPa South 1.6 km/h 8 km/h 74% 0 mm
12:40 8.8 °C 3.6 °C 1023.9 hPa SSW 6.4 km/h 11.3 km/h 70% 0 mm
12:45 9.1 °C 3.7 °C 1023.6 hPa SSW 1.6 km/h 12.9 km/h 69% 0 mm
12:50 9.4 °C 4.1 °C 1023.9 hPa South 4.8 km/h 12.9 km/h 69% 0 mm
12:55 9.4 °C 3.3 °C 1023.6 hPa South 3.2 km/h 12.9 km/h 66% 0 mm
13:00 9.3 °C 3.4 °C 1023.6 hPa South 6.4 km/h 12.9 km/h 67% 0 mm
13:05 9.6 °C 3.7 °C 1023.2 hPa South 1.6 km/h 12.9 km/h 67% 0 mm
13:10 9.7 °C 3.4 °C 1023.2 hPa SW 6.4 km/h 12.9 km/h 65% 0 mm
13:15 9.9 °C 3.2 °C 1023.2 hPa SW 6.4 km/h 12.9 km/h 63% 0 mm
13:20 9.9 °C 3.4 °C 1023.2 hPa West 1.6 km/h 12.9 km/h 64% 0 mm
13:25 10.1 °C 3.8 °C 1023.2 hPa SW 4.8 km/h 9.7 km/h 65% 0 mm
13:30 10.4 °C 3.4 °C 1023.2 hPa SSW 1.6 km/h 9.7 km/h 62% 0 mm
13:40 10.8 °C 4.2 °C 1022.9 hPa WSW 1.6 km/h 11.3 km/h 64% 0 mm
13:45 10.9 °C 3.7 °C 1022.9 hPa SW 6.4 km/h 17.7 km/h 61% 0 mm
13:55 10.8 °C 4.1 °C 1022.9 hPa West 1.6 km/h 11.3 km/h 63% 0 mm
14:00 11 °C 4.2 °C 1022.6 hPa Calm   11.3 km/h 63% 0 mm
14:05 11.3 °C 3.8 °C 1022.6 hPa WSW 1.6 km/h 11.3 km/h 60% 0 mm
14:15 12 °C 4.2 °C 1022.6 hPa Calm   6.4 km/h 59% 0 mm
14:20 12.1 °C 4.1 °C 1022.6 hPa Calm   8 km/h 58% 0 mm
14:25 11.9 °C 4.4 °C 1022.6 hPa WNW 1.6 km/h 19.3 km/h 60% 0 mm
14:35 11.8 °C 4.5 °C 1022.6 hPa WNW 4.8 km/h 11.3 km/h 61% 0 mm
14:40 11.1 °C 3.8 °C 1022.6 hPa WSW 3.2 km/h 12.9 km/h 61% 0 mm
14:45 11.1 °C 4.3 °C 1022.6 hPa North 1.6 km/h 12.9 km/h 63% 0 mm
14:50 11.4 °C 4.4 °C 1022.6 hPa Calm   11.3 km/h 62% 0 mm
14:55 11.6 °C 4.3 °C 1022.6 hPa NNW 1.6 km/h 11.3 km/h 61% 0 mm
15:00 11.4 °C 3.9 °C 1022.2 hPa NNW 8 km/h 12.9 km/h 60% 0 mm
15:05 11.1 °C 3.9 °C 1022.2 hPa Calm   12.9 km/h 61% 0 mm
15:10 11.1 °C 3.9 °C 1022.2 hPa NNW 1.6 km/h 8 km/h 61% 0 mm
15:15 10.8 °C 3.8 °C 1022.2 hPa Calm   8 km/h 62% 0 mm
15:20 11.1 °C 4.3 °C 1022.2 hPa Calm   1.6 km/h 63% 0 mm
15:25 11.2 °C 4 °C 1022.2 hPa WNW 1.6 km/h 12.9 km/h 61% 0 mm
15:35 11.3 °C 4.1 °C 1022.2 hPa Calm   8 km/h 61% 0 mm
15:40 11.6 °C 4.3 °C 1022.2 hPa Calm   8 km/h 61% 0 mm
15:45 11.9 °C 3.9 °C 1022.2 hPa Calm   8 km/h 58% 0 mm
15:50 11.9 °C 4.4 °C 1021.9 hPa WNW 1.6 km/h 8 km/h 60% 0 mm
15:55 11.8 °C 3.8 °C 1021.9 hPa NW 1.6 km/h 8 km/h 58% 0 mm
16:00 11.8 °C 4.3 °C 1021.9 hPa Calm   6.4 km/h 60% 0 mm
16:10 12.2 °C 4.2 °C 1021.9 hPa NW 1.6 km/h 6.4 km/h 58% 0 mm
16:15 12.1 °C 4.1 °C 1021.9 hPa Calm   6.4 km/h 58% 0 mm
16:20 12.1 °C 4.1 °C 1021.9 hPa Calm   1.6 km/h 58% 0 mm
16:25 12.2 °C 4.2 °C 1021.9 hPa Calm   1.6 km/h 58% 0 mm
16:35 12.3 °C 4.1 °C 1021.9 hPa Calm   6.4 km/h 57% 0 mm
16:40 12.1 °C 4.3 °C 1021.6 hPa Calm   6.4 km/h 59% 0 mm
16:45 12.2 °C 3.9 °C 1021.6 hPa Calm   1.6 km/h 57% 0 mm
16:55 12.6 °C 4.3 °C 1021.6 hPa Calm   3.2 km/h 57% 0 mm
17:00 12.5 °C 4.2 °C 1021.6 hPa Calm     57% 0 mm
17:05 12.4 °C 4.2 °C 1021.6 hPa Calm   1.6 km/h 57% 0 mm
17:10 12.5 °C 4.2 °C 1021.6 hPa Calm   1.6 km/h 57% 0 mm
17:15 12.4 °C 4.2 °C 1021.6 hPa Calm   1.6 km/h 57% 0 mm
17:20 12.4 °C 3.3 °C 1021.6 hPa SSW 3.2 km/h 6.4 km/h 54% 0 mm
17:25 12.6 °C 3.8 °C 1021.6 hPa West 1.6 km/h 9.7 km/h 55% 0 mm
17:30 12.7 °C 3.9 °C 1021.6 hPa Calm   11.3 km/h 55% 0 mm
17:40 12.4 °C 3.8 °C 1021.6 hPa Calm   4.8 km/h 56% 0 mm
17:45 12 °C 3.7 °C 1021.9 hPa Calm     57% 0 mm
17:50 11.6 °C 3.9 °C 1021.9 hPa Calm     59% 0 mm
17:55 11.2 °C 3.4 °C 1021.9 hPa West 6.4 km/h 11.3 km/h 59% 0 mm
18:00 10.8 °C 3.6 °C 1021.9 hPa WNW 3.2 km/h 12.9 km/h 61% 0 mm
18:10 10.1 °C 3.4 °C 1021.9 hPa Calm   9.7 km/h 63% 0 mm
18:15 9.8 °C 3.3 °C 1022.2 hPa West 1.6 km/h 6.4 km/h 64% 0 mm
18:20 9.5 °C 3.2 °C 1021.9 hPa Calm   6.4 km/h 65% 0 mm
18:25 9.2 °C 3.2 °C 1021.9 hPa Calm     66% 0 mm
18:30 9.1 °C 3.1 °C 1021.9 hPa Calm     66% 0 mm
18:35 8.9 °C 3.1 °C 1022.2 hPa Calm     67% 0 mm
18:40 8.7 °C 3.2 °C 1022.2 hPa Calm     68% 0 mm
18:45 8.6 °C 3.2 °C 1022.6 hPa Calm     69% 0 mm
18:50 8.6 °C 3.4 °C 1022.2 hPa Calm     70% 0 mm
18:55 8.5 °C 3.3 °C 1022.6 hPa Calm     70% 0 mm
19:00 8.4 °C 3.4 °C 1022.6 hPa Calm     71% 0 mm
19:05 8.2 °C 3.5 °C 1022.6 hPa Calm     72% 0 mm
19:10 8.2 °C 3.4 °C 1022.2 hPa Calm     72% 0 mm
19:15 8.1 °C 3.6 °C 1022.2 hPa Calm     73% 0 mm
19:20 8 °C 3.7 °C 1022.2 hPa Calm     74% 0 mm
19:25 7.8 °C 3.6 °C 1022.2 hPa Calm     75% 0 mm
19:30 7.7 °C 3.7 °C 1022.2 hPa Calm     76% 0 mm
19:35 7.6 °C 3.6 °C 1022.2 hPa Calm     76% 0 mm
19:40 7.4 °C 3.6 °C 1022.2 hPa Calm     77% 0 mm
19:45 7.3 °C 3.3 °C 1022.2 hPa Calm     76% 0 mm
19:50 7.3 °C 3.2 °C 1021.9 hPa Calm     75% 0 mm
20:00 7.7 °C 3.5 °C 1021.9 hPa Calm     75% 0 mm
20:05 7.7 °C 3.4 °C 1021.9 hPa Calm     74% 0 mm
20:10 7.8 °C 3.4 °C 1021.6 hPa Calm     74% 0 mm
20:15 7.7 °C 3.4 °C 1021.6 hPa Calm     74% 0 mm
20:20 7.8 °C 3.2 °C 1021.6 hPa Calm   1.6 km/h 73% 0 mm
20:25 7.6 °C 3.3 °C 1021.6 hPa Calm   1.6 km/h 74% 0 mm
20:30 7.4 °C 3.4 °C 1021.2 hPa Calm     76% 0 mm
20:35 7.2 °C 3.3 °C 1021.2 hPa Calm     76% 0 mm
20:40 7.3 °C 3.2 °C 1021.2 hPa Calm     75% 0 mm
20:45 7.3 °C 3.2 °C 1021.2 hPa Calm     75% 0 mm
20:50 7.4 °C 2.9 °C 1021.2 hPa Calm     73% 0 mm
20:55 7.6 °C 2.9 °C 1020.9 hPa Calm     72% 0 mm
21:00 7.6 °C 3.1 °C 1020.9 hPa Calm     73% 0 mm
21:05 7.6 °C 3.1 °C 1020.9 hPa Calm     73% 0 mm
21:10 7.8 °C 3.1 °C 1020.9 hPa Calm   8 km/h 72% 0 mm
21:15 8 °C 3.1 °C 1020.9 hPa Calm   8 km/h 71% 0 mm
21:20 8 °C 3.3 °C 1020.9 hPa Calm     72% 0 mm
21:30 7.5 °C 3.2 °C 1020.9 hPa Calm     74% 0 mm
21:40 7 °C 2.9 °C 1020.5 hPa Calm     75% 0 mm
21:45 6.9 °C 2.8 °C 1020.9 hPa Calm     75% 0 mm
21:50 6.8 °C 2.7 °C 1020.9 hPa Calm     75% 0 mm
22:00 6.8 °C 2.9 °C 1020.9 hPa Calm     76% 0 mm
22:05 6.8 °C 2.8 °C 1020.9 hPa Calm     76% 0 mm
22:10 6.5 °C 2.6 °C 1020.9 hPa Calm     76% 0 mm
22:15 6.4 °C 2.9 °C 1020.9 hPa Calm     78% 0 mm
22:20 6.5 °C 3.1 °C 1021.2 hPa Calm     79% 0 mm
22:25 6.6 °C 3.6 °C 1021.2 hPa Calm     81% 0 mm
22:30 6.5 °C 3.7 °C 1021.2 hPa Calm     82% 0 mm
22:35 6.5 °C 3.5 °C 1021.2 hPa Calm   1.6 km/h 81% 0 mm
22:40 6.7 °C 3.7 °C 1021.6 hPa Calm   1.6 km/h 81% 0.5 mm
22:45 6.7 °C 3.8 °C 1021.6 hPa Calm   4.8 km/h 82% 0.5 mm
22:55 6.4 °C 4.1 °C 1021.2 hPa Calm   4.8 km/h 85% 1 mm
23:00 6.5 °C 4.3 °C 1021.2 hPa Calm   1.6 km/h 86% 1 mm
23:05 6.6 °C 4.4 °C 1021.2 hPa Calm   11.3 km/h 86% 1.5 mm
23:10 6.5 °C 4.3 °C 1021.2 hPa Calm   11.3 km/h 86% 1.5 mm
23:20 6.4 °C 4.4 °C 1021.2 hPa Calm     87% 2 mm
23:25 6.4 °C 4.4 °C 1020.9 hPa Calm     87% 2 mm
23:30 6.3 °C 4.3 °C 1020.9 hPa South 3.2 km/h 9.7 km/h 87% 2 mm
23:40 6.4 °C 4.3 °C 1020.9 hPa South 4.8 km/h 14.5 km/h 86% 2 mm
23:45 6.6 °C 4.4 °C 1020.9 hPa SSW 6.4 km/h 16.1 km/h 86% 2.3 mm
23:50 6.6 °C 4.4 °C 1020.5 hPa South 8 km/h 19.3 km/h 86% 2.5 mm
Westford Weather
Compliments of Weather Underground

 
 
Current Radar Loop:

Copyright © WestfordWeather.net 2007-2014. All rights reserved.